createdAt,value
2023-05-24T00:00:00.140Z,1022.3
2023-05-24T00:05:00.312Z,1022.3
2023-05-24T00:10:00.188Z,1022.3
2023-05-24T00:15:00.175Z,1022.3
2023-05-24T00:20:00.173Z,1022.3
2023-05-24T00:25:00.144Z,1022.2
2023-05-24T00:30:00.132Z,1022.3
2023-05-24T00:35:00.166Z,1022.3
2023-05-24T00:40:00.235Z,1022.3
2023-05-24T00:45:00.164Z,1022.2
2023-05-24T00:50:00.158Z,1022.2
2023-05-24T00:55:00.140Z,1022.2
2023-05-24T01:00:00.130Z,1022.1
2023-05-24T01:05:00.135Z,1022.1
2023-05-24T01:10:00.179Z,1022.1
2023-05-24T01:15:00.161Z,1022.2
2023-05-24T01:20:00.310Z,1022.1
2023-05-24T01:25:00.172Z,1022
2023-05-24T01:30:00.185Z,1022
2023-05-24T01:35:00.152Z,1022.1
2023-05-24T01:40:00.166Z,1022.1
2023-05-24T01:45:00.143Z,1022.1
2023-05-24T01:50:00.116Z,1022.1
2023-05-24T01:55:00.101Z,1022.2
2023-05-24T02:00:00.125Z,1022.1
2023-05-24T02:05:00.155Z,1022.1
2023-05-24T02:10:00.165Z,1022
2023-05-24T02:15:00.162Z,1022.1
2023-05-24T02:20:00.250Z,1022
2023-05-24T02:25:00.166Z,1022.2
2023-05-24T02:30:00.178Z,1022.1
2023-05-24T02:35:00.139Z,1022.1
2023-05-24T02:40:00.152Z,1022.1
2023-05-24T02:45:00.134Z,1022.3
2023-05-24T02:50:00.143Z,1022.2
2023-05-24T02:55:00.114Z,1022.2
2023-05-24T03:00:00.156Z,1022.2
2023-05-24T03:05:00.135Z,1022.2
2023-05-24T03:10:00.144Z,1022.2
2023-05-24T03:15:00.129Z,1022.2
2023-05-24T03:20:00.269Z,1022.3
2023-05-24T03:25:00.148Z,1022.3
2023-05-24T03:30:00.160Z,1022.2
2023-05-24T03:35:00.193Z,1022.1
2023-05-24T03:40:00.148Z,1022.1
2023-05-24T03:45:00.109Z,1022.2
2023-05-24T03:50:00.159Z,1022.2
2023-05-24T03:55:00.127Z,1022.3
2023-05-24T04:00:00.128Z,1022.3
2023-05-24T04:05:00.179Z,1022.2
2023-05-24T04:10:00.180Z,1022.3
2023-05-24T04:15:00.138Z,1022.3
2023-05-24T04:20:00.219Z,1022.3
2023-05-24T04:25:00.367Z,1022.4
2023-05-24T04:30:00.143Z,1022.3
2023-05-24T04:35:00.134Z,1022.3
2023-05-24T04:40:00.181Z,1022.4
2023-05-24T04:45:00.158Z,1022.3
2023-05-24T04:50:00.204Z,1022.4
2023-05-24T04:55:00.156Z,1022.4
2023-05-24T05:00:00.135Z,1022.5
2023-05-24T05:05:00.168Z,1022.5
2023-05-24T05:10:00.174Z,1022.6
2023-05-24T05:15:00.153Z,1022.7
2023-05-24T05:20:00.184Z,1022.7
2023-05-24T05:25:00.183Z,1022.9
2023-05-24T05:30:00.155Z,1022.8
2023-05-24T05:35:00.160Z,1022.9
2023-05-24T05:40:00.163Z,1022.9
2023-05-24T05:45:00.139Z,1022.9
2023-05-24T05:50:00.192Z,1023
2023-05-24T05:55:00.157Z,1023
2023-05-24T06:00:00.193Z,1022.9
2023-05-24T06:05:00.205Z,1023
2023-05-24T06:10:00.169Z,1023
2023-05-24T06:15:00.169Z,1023
2023-05-24T06:20:00.165Z,1023.1
2023-05-24T06:25:00.158Z,1023.1
2023-05-24T06:30:00.235Z,1023.1
2023-05-24T06:35:00.152Z,1023.1
2023-05-24T06:40:00.211Z,1023.1
2023-05-24T06:45:00.142Z,1023.2
2023-05-24T06:50:00.150Z,1023.2
2023-05-24T06:55:00.146Z,1023.1
2023-05-24T07:00:00.132Z,1023.2
2023-05-24T07:05:00.190Z,1023.2
2023-05-24T07:10:00.413Z,1023.2
2023-05-24T07:15:00.106Z,1023.3
2023-05-24T07:20:00.203Z,1023.4
2023-05-24T07:25:00.140Z,1023.3
2023-05-24T07:30:00.190Z,1023.2
2023-05-24T07:35:00.118Z,1023.3
2023-05-24T07:40:00.166Z,1023.3
2023-05-24T07:45:00.116Z,1023.3
2023-05-24T07:50:00.149Z,1023.3
2023-05-24T07:55:00.153Z,1023.3
2023-05-24T08:00:00.135Z,1023.2
2023-05-24T08:05:00.112Z,1023.3
2023-05-24T08:10:00.158Z,1023.3
2023-05-24T08:15:00.166Z,1023.3
2023-05-24T08:20:00.289Z,1023.3
2023-05-24T08:25:00.184Z,1023.4
2023-05-24T08:30:00.123Z,1023.4
2023-05-24T08:35:07.218Z,1023.3
2023-05-24T08:40:00.147Z,1023.3
2023-05-24T08:45:00.116Z,1023.4
2023-05-24T08:50:00.165Z,1023.4
2023-05-24T08:55:00.164Z,1023.3
2023-05-24T09:00:00.160Z,1023.3
2023-05-24T09:05:00.135Z,1023.4
2023-05-24T09:10:00.160Z,1023.4
2023-05-24T09:15:00.137Z,1023.3
2023-05-24T09:20:00.466Z,1023.2
2023-05-24T09:25:00.185Z,1023.1
2023-05-24T09:30:00.206Z,1023.1
2023-05-24T09:35:00.174Z,1023.2
2023-05-24T09:40:00.224Z,1023.1
2023-05-24T09:45:00.131Z,1023.1
2023-05-24T09:50:00.191Z,1023.2
2023-05-24T09:55:00.111Z,1023.2
2023-05-24T10:00:00.121Z,1023.1
2023-05-24T10:05:00.228Z,1023.1
2023-05-24T10:10:00.155Z,1023.1
2023-05-24T10:15:00.169Z,1023.2
2023-05-24T10:20:00.218Z,1023.1
2023-05-24T10:25:00.198Z,1023.2
2023-05-24T10:30:00.111Z,1023.2
2023-05-24T10:35:00.126Z,1023.2
2023-05-24T10:40:00.172Z,1023.2
2023-05-24T10:45:00.121Z,1023.2
2023-05-24T10:50:00.224Z,1023.2
2023-05-24T10:55:04.338Z,1023.1
2023-05-24T11:00:00.195Z,1023.2
2023-05-24T11:05:00.189Z,1023.2
2023-05-24T11:10:00.216Z,1023.1
2023-05-24T11:15:00.114Z,1023.2
2023-05-24T11:20:00.180Z,1023.2
2023-05-24T11:25:00.210Z,1023.1
2023-05-24T11:30:00.180Z,1023.1
2023-05-24T11:35:00.155Z,1023.1
2023-05-24T11:40:00.111Z,1023
2023-05-24T11:45:00.138Z,1023
2023-05-24T11:50:00.172Z,1022.9
2023-05-24T11:55:00.118Z,1022.9
2023-05-24T12:00:00.171Z,1022.8
2023-05-24T12:05:00.329Z,1022.7
2023-05-24T12:10:00.206Z,1022.6
2023-05-24T12:15:00.176Z,1022.6
2023-05-24T12:20:00.283Z,1022.6
2023-05-24T12:25:00.123Z,1022.6
2023-05-24T12:30:00.233Z,1022.6
2023-05-24T12:35:00.155Z,1022.6
2023-05-24T12:40:00.173Z,1022.5
2023-05-24T12:45:00.140Z,1022.4
2023-05-24T12:50:00.225Z,1022.4
2023-05-24T12:55:00.126Z,1022.3
2023-05-24T13:00:00.107Z,1022.3
2023-05-24T13:05:00.180Z,1022.2
2023-05-24T13:10:00.186Z,1022.1
2023-05-24T13:15:00.124Z,1022.1
2023-05-24T13:20:00.205Z,1022
2023-05-24T13:25:00.145Z,1022
2023-05-24T13:30:01.557Z,1022
2023-05-24T13:35:00.134Z,1021.9
2023-05-24T13:40:00.182Z,1021.9
2023-05-24T13:45:00.116Z,1021.8
2023-05-24T13:50:00.127Z,1021.7
2023-05-24T13:55:00.165Z,1021.7
2023-05-24T14:00:00.177Z,1021.7
2023-05-24T14:05:17.422Z,1021.7
2023-05-24T14:10:00.227Z,1021.7
2023-05-24T14:15:00.515Z,1021.7
2023-05-24T14:20:00.212Z,1021.6
2023-05-24T14:25:00.152Z,1021.8
2023-05-24T14:30:00.232Z,1021.7
2023-05-24T14:35:00.145Z,1021.6
2023-05-24T14:40:00.365Z,1021.6
2023-05-24T14:45:00.151Z,1021.7
2023-05-24T14:50:00.221Z,1021.6
2023-05-24T14:55:00.134Z,1021.5
2023-05-24T15:00:00.160Z,1021.6
2023-05-24T15:05:00.134Z,1021.6
2023-05-24T15:10:00.160Z,1021.6
2023-05-24T15:15:00.175Z,1021.7
2023-05-24T15:20:00.185Z,1021.8
2023-05-24T15:25:00.181Z,1021.8
2023-05-24T15:30:00.215Z,1021.8
2023-05-24T15:35:00.273Z,1021.8
2023-05-24T15:40:00.175Z,1021.8
2023-05-24T15:45:00.139Z,1021.7
2023-05-24T15:50:00.134Z,1021.8
2023-05-24T15:55:00.153Z,1021.7
2023-05-24T16:00:00.117Z,1021.8
2023-05-24T16:05:00.145Z,1021.6
2023-05-24T16:10:00.127Z,1021.7
2023-05-24T16:15:00.142Z,1021.6
2023-05-24T16:20:00.208Z,1021.6
2023-05-24T16:25:00.116Z,1021.6
2023-05-24T16:30:00.278Z,1021.6
2023-05-24T16:35:00.169Z,1021.6
2023-05-24T16:40:00.131Z,1021.5
2023-05-24T16:45:00.134Z,1021.5
2023-05-24T16:50:00.169Z,1021.5
2023-05-24T16:55:00.119Z,1021.6
2023-05-24T17:00:00.174Z,1021.6
2023-05-24T17:05:00.133Z,1021.5
2023-05-24T17:10:00.143Z,1021.6
2023-05-24T17:15:00.151Z,1021.6
2023-05-24T17:20:00.263Z,1021.6
2023-05-24T17:25:00.163Z,1021.6
2023-05-24T17:30:00.154Z,1021.6
2023-05-24T17:35:00.206Z,1021.7
2023-05-24T17:40:00.144Z,1021.7
2023-05-24T17:45:00.119Z,1021.7
2023-05-24T17:50:00.135Z,1021.8
2023-05-24T17:55:00.156Z,1021.9
2023-05-24T18:00:00.145Z,1021.9
2023-05-24T18:05:00.224Z,1022
2023-05-24T18:10:00.683Z,1022.1
2023-05-24T18:15:00.142Z,1022.2
2023-05-24T18:20:00.311Z,1022.2
2023-05-24T18:25:00.138Z,1022.2
2023-05-24T18:30:00.139Z,1022.3
2023-05-24T18:35:00.142Z,1022.3
2023-05-24T18:40:00.140Z,1022.4
2023-05-24T18:45:00.130Z,1022.4
2023-05-24T18:50:00.179Z,1022.5
2023-05-24T18:55:00.143Z,1022.5
2023-05-24T19:00:00.128Z,1022.6
2023-05-24T19:05:00.170Z,1022.6
2023-05-24T19:10:00.145Z,1022.7
2023-05-24T19:15:00.118Z,1022.7
2023-05-24T19:20:00.181Z,1022.7
2023-05-24T19:25:00.111Z,1022.8
2023-05-24T19:30:00.216Z,1022.9
2023-05-24T19:35:00.115Z,1022.9
2023-05-24T19:40:00.124Z,1023
2023-05-24T19:45:00.115Z,1023
2023-05-24T19:50:00.185Z,1023.3
2023-05-24T19:55:00.117Z,1023.3
2023-05-24T20:00:00.109Z,1023.3
2023-05-24T20:05:00.127Z,1023.5
2023-05-24T20:10:00.137Z,1023.5
2023-05-24T20:15:00.114Z,1023.7
2023-05-24T20:20:00.185Z,1023.6
2023-05-24T20:25:00.129Z,1023.7
2023-05-24T20:30:00.134Z,1023.8
2023-05-24T20:35:00.131Z,1023.8
2023-05-24T20:40:00.148Z,1023.8
2023-05-24T20:45:00.109Z,1023.8
2023-05-24T20:50:00.150Z,1023.8
2023-05-24T20:55:00.145Z,1023.8
2023-05-24T21:00:00.135Z,1023.8
2023-05-24T21:05:00.141Z,1023.8
2023-05-24T21:10:00.129Z,1023.9
2023-05-24T21:15:00.212Z,1024
2023-05-24T21:20:00.412Z,1024.1
2023-05-24T21:25:00.143Z,1024.1
2023-05-24T21:30:00.177Z,1024.1
2023-05-24T21:35:00.126Z,1024.2
2023-05-24T21:40:00.179Z,1024.3
2023-05-24T21:45:00.137Z,1024.3
2023-05-24T21:50:00.160Z,1024.1
2023-05-24T21:55:00.137Z,1024.1
2023-05-24T22:00:00.156Z,1024.3
2023-05-24T22:05:00.181Z,1024.3
2023-05-24T22:10:00.184Z,1024.3
2023-05-24T22:15:00.125Z,1024.4
2023-05-24T22:20:00.153Z,1024.4
2023-05-24T22:25:00.141Z,1024.4
2023-05-24T22:30:00.115Z,1024.5
2023-05-24T22:35:00.121Z,1024.6
2023-05-24T22:40:00.123Z,1024.6
2023-05-24T22:45:00.129Z,1024.6
2023-05-24T22:50:00.131Z,1024.7
2023-05-24T22:55:00.160Z,1024.7
2023-05-24T23:00:00.151Z,1024.7
2023-05-24T23:05:00.306Z,1024.6
2023-05-24T23:10:00.212Z,1024.7
2023-05-24T23:15:00.129Z,1024.6
2023-05-24T23:20:00.173Z,1024.6
2023-05-24T23:25:00.129Z,1024.6
2023-05-24T23:30:00.160Z,1024.6
2023-05-24T23:35:00.138Z,1024.5
2023-05-24T23:40:00.163Z,1024.6
2023-05-24T23:45:00.154Z,1024.7
2023-05-24T23:50:00.180Z,1024.6
2023-05-24T23:55:00.176Z,1024.5
